Time;durP1;ratioP1;P1;durP2;ratioP2;P2;SDS_P1;SDS_P2;PMS_P1;PMS_P2;Temp;Humidity;BMP_temperature;BMP_pressure;BME280_temperature;BME280_humidity;BME280_pressure;Samples;Min_cycle;Max_cycle;Signal;HPM_P1;HPM_P2
2023/07/15 00:02:01;;;;;;;;;;;;;;;23.26;50.38;100412.50;5052473;28;19913;-73
2023/07/15 00:04:29;;;;;;;;;;;;;;;23.26;50.27;100412.50;5051842;28;19925;-73
2023/07/15 00:06:54;;;;;;;;;;;;;;;23.26;50.43;100404.38;5053808;28;20357;-73
2023/07/15 00:09:25;;;;;;;;;;;;;;;23.25;50.48;100400.00;5051611;28;19988;-74
2023/07/15 00:11:51;;;;;;;;;;;;;;;23.24;50.38;100401.88;5058561;28;19917;-73
2023/07/15 00:14:17;;;;;;;;;;;;;;;23.25;50.39;100400.00;5051034;28;19920;-73
2023/07/15 00:16:42;;;;;;;;;;;;;;;23.24;50.61;100396.44;5087941;28;20014;-73
2023/07/15 00:19:08;;;;;;;;;;;;;;;23.24;50.55;100392.91;5049505;28;19926;-73
2023/07/15 00:21:33;;;;;;;;;;;;;;;23.24;50.29;100395.63;5052549;28;19983;-73
2023/07/15 00:23:58;;;;;;;;;;;;;;;23.23;50.34;100388.50;5050317;28;19970;-73
2023/07/15 00:26:32;;;;;;;;;;;;;;;23.23;50.23;100381.19;5049110;28;19917;-73
2023/07/15 00:28:57;;;;;;;;;;;;;;;23.23;50.50;100374.94;5050717;28;19924;-73
2023/07/15 00:31:23;;;;;;;;;;;;;;;23.23;50.45;100381.19;5084060;28;19913;-72
2023/07/15 00:33:48;;;;;;;;;;;;;;;23.23;50.39;100389.34;5050811;28;20382;-73
2023/07/15 00:36:13;;;;;;;;;;;;;;;23.23;50.19;100385.78;5084063;28;19920;-73
2023/07/15 00:38:39;;;;;;;;;;;;;;;23.22;50.44;100379.53;5053882;28;19944;-72
2023/07/15 00:41:21;;;;;;;;;;;;;;;23.22;50.21;100374.09;5052353;28;19913;-73
2023/07/15 00:43:58;;;;;;;;;;;;;;;23.22;50.26;100376.81;5052593;28;19919;-73
2023/07/15 00:46:28;;;;;;;;;;;;;;;23.20;50.29;100371.63;5051757;28;19980;-73
2023/07/15 00:48:58;;;;;;;;;;;;;;;23.21;50.27;100369.75;5047049;28;20011;-74
2023/07/15 00:51:24;;;;;;;;;;;;;;;23.20;50.34;100370.78;5051415;28;19920;-73
2023/07/15 00:53:49;;;;;;;;;;;;;;;23.20;50.18;100371.63;5048390;28;19920;-74
2023/07/15 00:56:14;;;;;;;;;;;;;;;23.19;50.31;100364.53;5052002;28;19913;-73
2023/07/15 00:58:40;;;;;;;;;;;;;;;23.19;50.46;100367.25;5052829;28;19967;-73
2023/07/15 01:01:06;;;;;;;;;;;;;;;22.69;50.39;100287.38;5052752;28;19931;-73
2023/07/15 01:03:32;;;;;;;;;;;;;;;23.19;50.25;100358.25;5052387;28;19914;-73
2023/07/15 01:05:57;;;;;;;;;;;;;;;23.19;50.28;100360.97;5083748;28;20274;-73
2023/07/15 01:08:22;;;;;;;;;;;;;;;23.18;50.48;100360.13;5051360;28;19932;-74
2023/07/15 01:10:47;;;;;;;;;;;;;;;23.18;50.46;100357.41;5034765;28;19924;-73
2023/07/15 01:13:13;;;;;;;;;;;;;;;23.19;50.17;100363.66;5050917;28;19917;-73
2023/07/15 01:15:38;;;;;;;;;;;;;;;23.18;50.26;100364.72;5050230;28;19912;-73
2023/07/15 01:18:04;;;;;;;;;;;;;;;23.18;50.32;100360.13;5052464;28;19954;-73
2023/07/15 01:20:29;;;;;;;;;;;;;;;23.17;50.53;100366.59;5046906;28;19917;-73
2023/07/15 01:22:54;;;;;;;;;;;;;;;23.17;50.28;100376.63;5053386;28;19976;-73
2023/07/15 01:25:19;;;;;;;;;;;;;;;23.17;50.21;100377.47;5050849;28;20004;-73
2023/07/15 01:27:45;;;;;;;;;;;;;;;23.17;50.24;100372.03;5050987;28;19917;-74
2023/07/15 01:30:10;;;;;;;;;;;;;;;23.16;50.09;100367.66;5050821;28;19913;-74
2023/07/15 01:32:35;;;;;;;;;;;;;;;23.17;50.17;100373.91;5048885;28;19921;-74
2023/07/15 01:35:03;;;;;;;;;;;;;;;23.16;50.39;100364.94;5050432;28;20833;-73
2023/07/15 01:37:28;;;;;;;;;;;;;;;23.16;50.35;100375.78;5051486;28;19921;-73
2023/07/15 01:39:53;;;;;;;;;;;;;;;23.15;50.28;100371.41;5054092;28;20441;-74
2023/07/15 01:42:19;;;;;;;;;;;;;;;23.16;50.10;100374.97;5048733;28;19984;-74
2023/07/15 01:44:44;;;;;;;;;;;;;;;23.15;50.16;100379.56;5052111;28;20333;-74
2023/07/15 01:47:09;;;;;;;;;;;;;;;23.15;50.38;100374.13;5078587;28;19924;-74
2023/07/15 01:49:35;;;;;;;;;;;;;;;23.15;50.21;100374.13;5049111;28;19913;-74
2023/07/15 01:52:00;;;;;;;;;;;;;;;23.14;50.19;100377.88;5054795;28;20043;-74
2023/07/15 01:54:26;;;;;;;;;;;;;;;23.14;50.19;100372.44;5065144;28;19913;-73
2023/07/15 01:56:51;;;;;;;;;;;;;;;23.14;50.04;100369.72;5050301;28;19964;-74
2023/07/15 01:59:16;;;;;;;;;;;;;;;23.14;50.16;100369.72;5067064;28;19913;-74
2023/07/15 02:01:41;;;;;;;;;;;;;;;23.14;50.31;100363.47;5050987;28;19924;-74
2023/07/15 02:04:06;;;;;;;;;;;;;;;23.14;50.36;100371.63;5048799;28;20015;-74
2023/07/15 02:06:32;;;;;;;;;;;;;;;23.13;50.14;100370.78;5053376;28;19967;-74
2023/07/15 02:08:57;;;;;;;;;;;;;;;23.13;50.24;100361.81;5079338;28;19921;-74
2023/07/15 02:11:22;;;;;;;;;;;;;;;23.13;50.33;100356.38;5050992;28;19924;-74
2023/07/15 02:13:50;;;;;;;;;;;;;;;23.12;50.04;100363.69;5083288;28;19917;-74
2023/07/15 02:16:15;;;;;;;;;;;;;;;23.12;50.06;100355.56;5046747;28;20063;-73
2023/07/15 02:18:40;;;;;;;;;;;;;;;23.13;50.38;100359.09;5052495;28;19925;-74
2023/07/15 02:21:05;;;;;;;;;;;;;;;23.12;50.13;100352.84;5046508;28;20353;-74
2023/07/15 02:23:31;;;;;;;;;;;;;;;23.12;50.14;100349.31;5050984;28;19913;-74
2023/07/15 02:25:56;;;;;;;;;;;;;;;23.11;50.28;100356.63;5051565;28;19917;-74
2023/07/15 02:28:26;;;;;;;;;;;;;;;23.11;50.05;100355.78;5065625;28;20581;-73
2023/07/15 02:30:51;;;;;;;;;;;;;;;23.11;50.15;100361.22;5083956;28;19920;-74
2023/07/15 02:33:16;;;;;;;;;;;;;;;23.11;50.42;100366.63;5085195;28;19917;-73
2023/07/15 02:35:41;;;;;;;;;;;;;;;23.11;50.25;100366.63;5051929;28;20273;-73
2023/07/15 02:38:07;;;;;;;;;;;;;;;23.10;50.12;100368.47;5055279;28;19917;-73
2023/07/15 02:40:32;;;;;;;;;;;;;;;23.10;50.17;100359.50;5055535;28;19935;-74
2023/07/15 02:42:58;;;;;;;;;;;;;;;23.10;50.33;100365.78;5052560;28;19975;-74
2023/07/15 02:45:23;;;;;;;;;;;;;;;23.10;49.97;100362.22;5054246;28;19921;-73
2023/07/15 02:47:48;;;;;;;;;;;;;;;23.10;50.22;100364.94;5051920;28;19941;-74
2023/07/15 02:50:13;;;;;;;;;;;;;;;23.09;50.41;100366.81;5054101;28;20381;-74
2023/07/15 02:52:41;;;;;;;;;;;;;;;23.08;50.09;100373.28;5054935;28;19962;-74
2023/07/15 02:55:09;;;;;;;;;;;;;;;23.08;50.02;100367.88;5053481;28;19913;-74
2023/07/15 02:57:34;;;;;;;;;;;;;;;23.08;50.17;100376.00;5055207;28;19913;-74
2023/07/15 03:00:00;;;;;;;;;;;;;;;23.09;50.29;100382.25;5088769;28;20279;-73
2023/07/15 03:02:25;;;;;;;;;;;;;;;23.08;50.44;100383.31;5053157;28;19964;-73
2023/07/15 03:04:51;;;;;;;;;;;;;;;23.07;50.15;100382.47;5051656;28;19921;-73
2023/07/15 03:07:16;;;;;;;;;;;;;;;23.07;50.05;100398.75;5087914;28;19913;-74
2023/07/15 03:09:42;;;;;;;;;;;;;;;23.07;50.20;100392.50;5050410;28;19921;-74
2023/07/15 03:12:10;;;;;;;;;;;;;;;23.07;50.24;100387.91;5085289;28;19920;-74
2023/07/15 03:14:35;;;;;;;;;;;;;;;23.07;50.15;100381.66;5086176;28;19967;-74
2023/07/15 03:17:01;;;;;;;;;;;;;;;23.05;50.08;100387.25;5053663;28;19913;-74
2023/07/15 03:19:27;;;;;;;;;;;;;;;23.06;50.29;100386.22;5088265;28;19966;-74
2023/07/15 03:21:52;;;;;;;;;;;;;;;23.05;50.04;100387.25;5051100;28;19916;-74
2023/07/15 03:24:17;;;;;;;;;;;;;;;23.05;50.11;100394.56;5055443;28;20326;-74
2023/07/15 03:26:42;;;;;;;;;;;;;;;23.05;50.00;100389.13;5054389;28;19917;-74
2023/07/15 03:29:08;;;;;;;;;;;;;;;23.05;50.18;100389.13;5085994;28;20341;-74
2023/07/15 03:31:34;;;;;;;;;;;;;;;23.05;50.15;100391.84;5051216;28;19944;-74
2023/07/15 03:33:59;;;;;;;;;;;;;;;23.04;50.10;100392.91;5052909;28;20048;-74
2023/07/15 03:36:25;;;;;;;;;;;;;;;23.04;50.42;100390.19;5051203;28;19963;-73
2023/07/15 03:38:50;;;;;;;;;;;;;;;23.03;50.29;100388.53;5052426;28;19914;-73
2023/07/15 03:41:15;;;;;;;;;;;;;;;23.03;50.23;100386.66;5053351;28;19917;-73
2023/07/15 03:43:40;;;;;;;;;;;;;;;23.03;50.14;100383.94;5048941;28;19913;-73
2023/07/15 03:46:06;;;;;;;;;;;;;;;23.03;50.11;100383.09;5054777;28;19917;-73
2023/07/15 03:48:31;;;;;;;;;;;;;;;23.03;50.16;100383.94;5052246;28;19913;-73
2023/07/15 03:50:56;;;;;;;;;;;;;;;23.03;49.99;100388.53;5055476;28;19913;-74
2023/07/15 03:53:21;;;;;;;;;;;;;;;23.02;50.30;100384.97;5054108;28;20384;-73
2023/07/15 03:55:46;;;;;;;;;;;;;;;23.02;50.15;100376.00;5085310;28;20366;-73
2023/07/15 03:58:12;;;;;;;;;;;;;;;23.02;50.30;100381.41;5083861;28;20568;-74
2023/07/15 04:00:37;;;;;;;;;;;;;;;23.02;50.07;100384.13;5069700;28;19975;-74
2023/07/15 04:03:02;;;;;;;;;;;;;;;23.01;50.36;100383.28;5053672;28;20015;-74
2023/07/15 04:05:27;;;;;;;;;;;;;;;23.02;50.15;100384.13;5051315;28;19983;-74
2023/07/15 04:07:53;;;;;;;;;;;;;;;23.02;50.11;100384.13;5052798;28;19928;-74
2023/07/15 04:10:18;;;;;;;;;;;;;;;23.02;50.05;100386.84;5081578;28;19917;-75
2023/07/15 04:12:44;;;;;;;;;;;;;;;23.02;50.21;100386.84;5052244;28;19913;-74
2023/07/15 04:15:09;;;;;;;;;;;;;;;23.01;50.11;100387.88;5054293;28;20746;-75
2023/07/15 04:17:34;;;;;;;;;;;;;;;23.01;50.05;100394.13;5051817;28;20412;-74
2023/07/15 04:19:59;;;;;;;;;;;;;;;23.01;50.37;100388.72;5050831;28;19944;-74
2023/07/15 04:22:24;;;;;;;;;;;;;;;23.01;50.08;100387.88;5053157;28;19924;-74
2023/07/15 04:24:50;;;;;;;;;;;;;;;23.01;50.34;100391.44;5054056;28;19917;-74
2023/07/15 04:27:15;;;;;;;;;;;;;;;23.01;50.45;100396.03;5053266;28;19939;-74
2023/07/15 04:29:41;;;;;;;;;;;;;;;23.01;50.19;100391.44;5049442;28;19917;-74
2023/07/15 04:32:06;;;;;;;;;;;;;;;23.00;50.26;100394.38;5047815;28;19917;-74
2023/07/15 04:34:31;;;;;;;;;;;;;;;23.01;50.57;100393.31;5070180;28;19920;-75
2023/07/15 04:36:56;;;;;;;;;;;;;;;23.00;50.26;100395.19;5079829;28;19960;-75
2023/07/15 04:39:22;;;;;;;;;;;;;;;23.00;50.31;100391.66;5050272;28;19917;-76
2023/07/15 04:41:47;;;;;;;;;;;;;;;23.00;50.36;100394.38;5069832;28;19963;-75
2023/07/15 04:44:12;;;;;;;;;;;;;;;23.01;50.61;100399.56;5048814;28;19913;-76
2023/07/15 04:46:37;;;;;;;;;;;;;;;23.00;50.51;100406.03;5053624;28;19917;-75
2023/07/15 04:49:02;;;;;;;;;;;;;;;23.00;50.67;100397.91;5050892;28;20301;-75
2023/07/15 04:51:28;;;;;;;;;;;;;;;23.01;50.62;100398.72;5067646;28;20350;-76
2023/07/15 04:53:53;;;;;;;;;;;;;;;23.01;50.69;100402.28;5085037;28;19917;-75
2023/07/15 04:56:18;;;;;;;;;;;;;;;23.01;50.88;100406.88;5053844;28;20394;-73
2023/07/15 04:58:43;;;;;;;;;;;;;;;23.01;50.42;100407.69;5049708;28;19965;-73
2023/07/15 05:01:09;;;;;;;;;;;;;;;23.01;50.82;100407.69;5053774;28;19917;-72
2023/07/15 05:03:34;;;;;;;;;;;;;;;23.01;50.84;100415.84;5047996;28;19917;-74
2023/07/15 05:05:59;;;;;;;;;;;;;;;23.01;50.73;100412.28;5046703;28;19932;-76
2023/07/15 05:08:24;;;;;;;;;;;;;;;23.02;50.76;100416.66;5058388;28;19952;-75
2023/07/15 05:10:49;;;;;;;;;;;;;;;23.01;50.68;100409.56;5048356;28;19913;-74
2023/07/15 05:13:15;;;;;;;;;;;;;;;23.01;50.73;100415.84;5054504;28;19917;-75
2023/07/15 05:15:41;;;;;;;;;;;;;;;23.01;50.95;100418.53;5085070;28;19917;-75
2023/07/15 05:18:06;;;;;;;;;;;;;;;23.02;50.85;100422.09;5084433;28;19921;-74
2023/07/15 05:20:35;;;;;;;;;;;;;;;23.02;50.87;100428.34;5083077;28;19952;-75
2023/07/15 05:23:01;;;;;;;;;;;;;;;23.02;51.04;100431.06;5034872;28;19913;-74
2023/07/15 05:25:26;;;;;;;;;;;;;;;23.02;50.80;100424.78;5032633;28;19921;-74
2023/07/15 05:27:51;;;;;;;;;;;;;;;23.02;51.07;100427.50;5051950;28;20010;-75
2023/07/15 05:30:17;;;;;;;;;;;;;;;23.02;51.11;100433.75;5051549;28;20454;-75
2023/07/15 05:32:42;;;;;;;;;;;;;;;23.02;51.06;100433.75;5048579;28;19923;-74
2023/07/15 05:35:07;;;;;;;;;;;;;;;23.03;51.20;100437.34;5051520;28;19917;-75
2023/07/15 05:37:32;;;;;;;;;;;;;;;23.03;50.94;100446.31;5063080;28;19959;-74
2023/07/15 05:39:58;;;;;;;;;;;;;;;23.03;51.13;100431.91;5048987;28;19944;-75
2023/07/15 05:42:23;;;;;;;;;;;;;;;23.03;51.23;100429.19;5054763;28;19912;-76
2023/07/15 05:44:49;;;;;;;;;;;;;;;23.03;51.29;100435.44;5049047;28;19916;-76
2023/07/15 05:47:14;;;;;;;;;;;;;;;23.03;51.26;100432.75;5052109;28;20098;-76
2023/07/15 05:49:39;;;;;;;;;;;;;;;23.03;51.41;100431.91;5052957;28;19913;-76
2023/07/15 05:52:05;;;;;;;;;;;;;;;23.03;51.30;100432.75;5084328;28;19917;-76
2023/07/15 05:54:30;;;;;;;;;;;;;;;23.03;51.22;100437.34;5048093;28;19912;-77
2023/07/15 05:56:55;;;;;;;;;;;;;;;23.03;51.37;100430.03;5051470;28;19916;-75
2023/07/15 05:59:21;;;;;;;;;;;;;;;23.03;51.26;100440.88;5049690;28;19917;-71
2023/07/15 06:01:46;;;;;;;;;;;;;;;23.03;51.28;100435.44;5048634;28;19925;-75
2023/07/15 06:04:12;;;;;;;;;;;;;;;23.03;51.26;100432.75;5081360;28;19920;-75
2023/07/15 06:06:37;;;;;;;;;;;;;;;23.03;51.48;100435.44;5078485;28;19924;-75
2023/07/15 06:09:02;;;;;;;;;;;;;;;23.03;51.45;100431.91;5055554;28;19970;-76
2023/07/15 06:11:27;;;;;;;;;;;;;;;23.03;51.10;100435.44;5085107;28;19917;-75
2023/07/15 06:13:53;;;;;;;;;;;;;;;23.03;51.28;100430.03;5055733;28;19988;-76
2023/07/15 06:16:18;;;;;;;;;;;;;;;23.04;51.29;100422.72;5055668;28;19924;-73
2023/07/15 06:18:43;;;;;;;;;;;;;;;23.03;51.48;100431.91;5056093;28;19921;-74
2023/07/15 06:21:09;;;;;;;;;;;;;;;23.03;51.23;100432.75;5052811;28;19912;-74
2023/07/15 06:23:34;;;;;;;;;;;;;;;23.04;51.24;100436.28;5057675;28;20254;-72
2023/07/15 06:25:59;;;;;;;;;;;;;;;23.03;51.06;100427.31;5052749;28;19968;-73
2023/07/15 06:28:24;;;;;;;;;;;;;;;23.04;51.22;100433.56;5053949;28;19980;-73
2023/07/15 06:30:59;;;;;;;;;;;;;;;23.03;51.51;100430.03;5081664;28;20405;-73
2023/07/15 06:33:24;;;;;;;;;;;;;;;23.03;51.21;100435.44;5068972;28;19913;-74
2023/07/15 06:35:49;;;;;;;;;;;;;;;23.04;51.42;100430.88;5054613;28;19924;-74
2023/07/15 06:38:14;;;;;;;;;;;;;;;23.04;51.35;100433.56;5051751;28;19916;-76
2023/07/15 06:40:39;;;;;;;;;;;;;;;23.04;51.29;100430.88;5086972;28;19917;-76
2023/07/15 06:43:05;;;;;;;;;;;;;;;23.04;51.18;100430.88;5055886;28;20027;-76
2023/07/15 06:45:33;;;;;;;;;;;;;;;23.04;51.27;100426.28;5054119;28;20040;-76
2023/07/15 06:47:59;;;;;;;;;;;;;;;23.04;51.29;100434.41;5052827;28;20394;-75
2023/07/15 06:50:24;;;;;;;;;;;;;;;23.05;51.24;100435.25;5087169;28;19913;-74
2023/07/15 06:52:49;;;;;;;;;;;;;;;23.05;51.00;100429.81;5055317;28;20011;-76
2023/07/15 06:55:14;;;;;;;;;;;;;;;23.05;51.40;100432.53;5054236;28;19983;-75
2023/07/15 06:57:39;;;;;;;;;;;;;;;23.05;51.11;100429.81;5053052;28;20010;-77
2023/07/15 07:00:05;;;;;;;;;;;;;;;23.05;51.39;100427.94;5050989;28;19970;-75
2023/07/15 07:02:30;;;;;;;;;;;;;;;23.06;50.99;100423.34;5054629;28;20014;-75
2023/07/15 07:04:55;;;;;;;;;;;;;;;23.06;51.15;100426.06;5052437;28;19917;-75
2023/07/15 07:07:23;;;;;;;;;;;;;;;23.05;51.33;100422.50;5053417;28;19917;-75
2023/07/15 07:09:48;;;;;;;;;;;;;;;23.06;51.06;100423.34;5057073;28;19929;-75
2023/07/15 07:12:14;;;;;;;;;;;;;;;23.06;51.14;100428.75;5052726;28;19940;-75
2023/07/15 07:14:40;;;;;;;;;;;;;;;23.06;51.41;100447.75;5053431;28;19919;-75
2023/07/15 07:17:05;;;;;;;;;;;;;;;23.06;51.18;100447.75;5053065;28;19976;-75
2023/07/15 07:19:30;;;;;;;;;;;;;;;23.07;51.23;100435.88;5051045;28;19921;-74
2023/07/15 07:21:55;;;;;;;;;;;;;;;23.05;51.11;100430.66;5084849;28;20427;-76
2023/07/15 07:24:22;;;;;;;;;;;;;;;23.06;51.04;100429.59;5053879;28;19913;-75
2023/07/15 07:26:48;;;;;;;;;;;;;;;23.07;51.10;100433.16;5048911;28;19917;-75
2023/07/15 07:29:13;;;;;;;;;;;;;;;23.06;51.32;100426.06;5052497;28;19924;-75
2023/07/15 07:31:38;;;;;;;;;;;;;;;23.06;51.08;100429.59;5052543;28;19921;-75
2023/07/15 07:34:03;;;;;;;;;;;;;;;23.06;50.91;100435.03;5051058;28;19939;-75
2023/07/15 07:36:29;;;;;;;;;;;;;;;23.07;50.99;100441.31;5054964;28;19976;-75
2023/07/15 07:38:54;;;;;;;;;;;;;;;23.07;50.96;100449.44;5034407;28;19913;-75
2023/07/15 07:41:19;;;;;;;;;;;;;;;23.07;51.07;100452.16;5053731;28;19928;-75
2023/07/15 07:43:45;;;;;;;;;;;;;;;23.08;51.20;100459.22;5054531;28;19924;-75
2023/07/15 07:46:13;;;;;;;;;;;;;;;23.07;50.89;100463.00;5054640;28;19927;-75
2023/07/15 07:48:38;;;;;;;;;;;;;;;23.07;51.17;100465.72;5050004;28;19945;-75
2023/07/15 07:51:03;;;;;;;;;;;;;;;23.08;51.14;100464.66;5055105;28;19917;-75
2023/07/15 07:53:28;;;;;;;;;;;;;;;23.07;51.07;100449.44;5050922;28;19952;-74
2023/07/15 07:55:54;;;;;;;;;;;;;;;23.08;50.95;100451.09;5084638;28;19920;-75
2023/07/15 07:58:19;;;;;;;;;;;;;;;23.07;50.99;100449.44;5052358;28;19925;-75
2023/07/15 08:00:44;;;;;;;;;;;;;;;23.08;51.26;100453.81;5050426;28;19948;-75
2023/07/15 08:03:10;;;;;;;;;;;;;;;23.08;51.30;100453.81;5051577;28;19928;-75
2023/07/15 08:05:42;;;;;;;;;;;;;;;23.09;51.19;100460.91;5046596;28;20345;-75
2023/07/15 08:08:07;;;;;;;;;;;;;;;23.09;51.10;100474.47;5052006;28;19913;-75
2023/07/15 08:10:33;;;;;;;;;;;;;;;23.09;51.07;100467.16;5054020;28;20476;-75
2023/07/15 08:12:58;;;;;;;;;;;;;;;23.10;51.07;100463.38;5052942;28;19921;-75
2023/07/15 08:15:23;;;;;;;;;;;;;;;23.10;51.08;100468.81;5051888;28;19916;-75
2023/07/15 08:17:48;;;;;;;;;;;;;;;23.11;51.01;100467.78;5053370;28;19932;-75
2023/07/15 08:20:13;;;;;;;;;;;;;;;23.12;51.30;100455.06;5049303;28;20381;-75
2023/07/15 08:22:39;;;;;;;;;;;;;;;23.13;51.03;100462.16;5049074;28;19927;-74
2023/07/15 08:25:04;;;;;;;;;;;;;;;23.13;50.95;100475.72;5034302;28;19984;-74
2023/07/15 08:27:29;;;;;;;;;;;;;;;23.12;50.94;100464.03;5048334;28;20404;-74
2023/07/15 08:29:54;;;;;;;;;;;;;;;23.13;51.24;100470.28;5052064;28;19913;-73
2023/07/15 08:32:20;;;;;;;;;;;;;;;23.14;51.02;100470.06;5066836;28;20286;-74
2023/07/15 08:35:01;;;;;;;;;;;;;;;23.14;51.25;100464.66;5051339;28;20358;-75
2023/07/15 08:37:26;;;;;;;;;;;;;;;23.16;51.29;100464.47;5053740;28;19916;-75
2023/07/15 08:39:51;;;;;;;;;;;;;;;23.16;51.38;100462.56;5051439;28;19935;-75
2023/07/15 08:42:19;;;;;;;;;;;;;;;23.16;51.08;100456.31;5052055;28;19966;-74
2023/07/15 08:44:44;;;;;;;;;;;;;;;23.17;51.04;100450.69;5052968;28;19995;-74
2023/07/15 08:47:10;;;;;;;;;;;;;;;23.18;51.23;100448.81;5050693;28;19913;-75
2023/07/15 08:49:35;;;;;;;;;;;;;;;23.17;51.11;100450.69;5079917;28;19940;-75
2023/07/15 08:52:00;;;;;;;;;;;;;;;23.18;51.30;100452.34;5052211;28;19917;-74
2023/07/15 08:54:25;;;;;;;;;;;;;;;23.19;50.92;100453.16;5079562;28;19920;-75
2023/07/15 08:56:51;;;;;;;;;;;;;;;23.19;51.22;100473.03;5048931;28;20383;-75
2023/07/15 08:59:18;;;;;;;;;;;;;;;23.20;50.99;100471.97;5055785;28;19923;-75
2023/07/15 09:01:43;;;;;;;;;;;;;;;23.21;51.03;100472.81;5052507;28;19936;-75
2023/07/15 09:04:09;;;;;;;;;;;;;;;23.22;51.18;100469.03;5084400;28;19913;-75
2023/07/15 09:06:34;;;;;;;;;;;;;;;23.23;51.13;100478.84;5084642;28;19921;-75
2023/07/15 09:08:59;;;;;;;;;;;;;;;23.25;51.36;100470.50;5050625;28;20409;-72
2023/07/15 09:11:24;;;;;;;;;;;;;;;23.26;50.96;100470.28;5051535;28;20465;-74
2023/07/15 09:13:49;;;;;;;;;;;;;;;23.27;51.11;100477.38;5050808;28;20000;-73
2023/07/15 09:16:15;;;;;;;;;;;;;;;23.27;51.11;100492.81;5048406;28;19947;-74
2023/07/15 09:18:40;;;;;;;;;;;;;;;23.27;51.08;100485.53;5051577;28;19921;-73
2023/07/15 09:21:06;;;;;;;;;;;;;;;23.29;51.05;100490.75;5080386;28;19976;-74
2023/07/15 09:23:31;;;;;;;;;;;;;;;23.29;51.10;100499.72;5083124;28;19912;-75
2023/07/15 09:25:57;;;;;;;;;;;;;;;23.31;51.15;100496.78;5053667;28;20397;-75
2023/07/15 09:28:22;;;;;;;;;;;;;;;23.30;51.39;100504.09;5047351;28;19920;-75
2023/07/15 09:30:47;;;;;;;;;;;;;;;23.31;51.44;100494.91;5052982;28;20423;-75
2023/07/15 09:33:32;;;;;;;;;;;;;;;23.32;51.09;100503.88;5082396;28;19932;-74
2023/07/15 09:35:57;;;;;;;;;;;;;;;23.32;51.18;100504.75;5050479;28;19913;-74
2023/07/15 09:38:23;;;;;;;;;;;;;;;23.31;51.30;100500.34;5083537;28;19920;-74
2023/07/15 09:40:49;;;;;;;;;;;;;;;23.33;51.60;100500.16;5051355;28;19924;-73
2023/07/15 09:43:14;;;;;;;;;;;;;;;23.34;51.28;100504.53;5082673;28;20055;-73
2023/07/15 09:45:40;;;;;;;;;;;;;;;23.35;51.37;100511.63;5050691;28;19921;-74
2023/07/15 09:48:06;;;;;;;;;;;;;;;23.35;51.79;100517.03;5048509;28;19923;-74
2023/07/15 09:50:37;;;;;;;;;;;;;;;23.34;52.11;100518.09;5064521;28;20003;-75
2023/07/15 09:53:02;;;;;;;;;;;;;;;23.36;52.04;100526.84;5051959;28;19913;-74
2023/07/15 09:55:28;;;;;;;;;;;;;;;23.36;52.01;100519.56;5048971;28;19920;-74
2023/07/15 09:57:57;;;;;;;;;;;;;;;23.37;52.19;100513.09;5048631;28;19920;-73
2023/07/15 10:00:22;;;;;;;;;;;;;;;23.37;52.19;100532.06;5048220;28;19920;-72
2023/07/15 10:02:49;;;;;;;;;;;;;;;23.38;52.29;100527.47;5050881;28;19917;-72
2023/07/15 10:05:14;;;;;;;;;;;;;;;23.39;51.90;100519.13;5048025;28;19917;-75
2023/07/15 10:07:40;;;;;;;;;;;;;;;23.38;52.04;100506.63;5053062;28;19913;-76
2023/07/15 10:10:07;;;;;;;;;;;;;;;23.38;52.04;100520.19;5048422;28;19917;-76
2023/07/15 10:12:33;;;;;;;;;;;;;;;23.40;52.26;100526.22;5046838;28;19940;-75
2023/07/15 10:14:58;;;;;;;;;;;;;;;23.40;52.18;100528.94;5050183;28;19924;-73
2023/07/15 10:17:23;;;;;;;;;;;;;;;23.42;52.24;100520.59;5080439;28;19920;-74
2023/07/15 10:19:49;;;;;;;;;;;;;;;23.42;52.22;100510.59;5069500;28;19920;-76
2023/07/15 10:22:18;;;;;;;;;;;;;;;23.42;52.50;100524.16;5047230;28;19917;-75
2023/07/15 10:24:51;;;;;;;;;;;;;;;23.45;52.33;100522.91;5085933;28;19959;-75
2023/07/15 10:27:16;;;;;;;;;;;;;;;23.45;52.22;100523.75;5049671;28;19999;-74
2023/07/15 10:29:41;;;;;;;;;;;;;;;23.47;52.42;100514.56;5050396;28;19921;-74
2023/07/15 10:32:14;;;;;;;;;;;;;;;23.47;52.20;100520.81;5051435;28;19916;-73
2023/07/15 10:34:40;;;;;;;;;;;;;;;23.47;52.17;100520.81;5034448;28;19957;-74
2023/07/15 10:37:05;;;;;;;;;;;;;;;23.47;52.33;100512.66;5050915;28;19928;-74
2023/07/15 10:39:34;;;;;;;;;;;;;;;23.48;52.28;100516.22;5084528;28;19916;-75
2023/07/15 10:42:06;;;;;;;;;;;;;;;23.47;52.22;100517.25;5052881;28;19917;-74
2023/07/15 10:44:31;;;;;;;;;;;;;;;23.48;52.21;100517.03;5048989;28;19913;-77
2023/07/15 10:46:59;;;;;;;;;;;;;;;23.48;52.27;100524.34;5083847;28;19938;-75
2023/07/15 10:49:24;;;;;;;;;;;;;;;23.48;52.32;100513.50;5046161;28;19959;-74
2023/07/15 10:51:52;;;;;;;;;;;;;;;23.49;52.42;100521.44;5051124;28;19916;-74
2023/07/15 10:54:25;;;;;;;;;;;;;;;23.48;52.44;100527.06;5047211;28;19917;-75
2023/07/15 10:56:50;;;;;;;;;;;;;;;23.48;52.88;100527.06;5047329;28;19909;-74
2023/07/15 10:59:15;;;;;;;;;;;;;;;23.48;52.78;100519.75;5058721;28;19917;-75
2023/07/15 11:01:44;;;;;;;;;;;;;;;23.49;52.77;100517.88;5054611;28;19939;-75
2023/07/15 11:04:09;;;;;;;;;;;;;;;23.49;52.69;100505.16;5051141;28;19913;-74
2023/07/15 11:06:35;;;;;;;;;;;;;;;23.50;52.49;100508.72;5053155;28;19932;-74
2023/07/15 11:09:13;;;;;;;;;;;;;;;23.50;52.57;100511.44;5055924;28;19939;-73
2023/07/15 11:11:38;;;;;;;;;;;;;;;23.50;52.37;100504.13;5052280;28;19913;-74
2023/07/15 11:14:03;;;;;;;;;;;;;;;23.49;52.22;100497.03;5053171;28;20374;-74
2023/07/15 11:16:28;;;;;;;;;;;;;;;23.50;52.44;100498.69;5052178;28;20592;-74
2023/07/15 11:18:54;;;;;;;;;;;;;;;23.50;52.57;100500.56;5051807;28;19932;-74
2023/07/15 11:21:19;;;;;;;;;;;;;;;23.51;52.47;100508.50;5054767;28;19913;-74
2023/07/15 11:23:44;;;;;;;;;;;;;;;23.51;52.24;100505.78;5050579;28;19920;-74
2023/07/15 11:26:09;;;;;;;;;;;;;;;23.52;52.26;100502.00;5087604;28;20706;-75
2023/07/15 11:28:45;;;;;;;;;;;;;;;23.52;52.30;100510.16;5055471;28;20394;-75
2023/07/15 11:31:10;;;;;;;;;;;;;;;23.52;52.44;100499.31;5054570;28;19925;-74
2023/07/15 11:33:35;;;;;;;;;;;;;;;23.53;52.42;100503.69;5082644;28;19917;-75
2023/07/15 11:36:00;;;;;;;;;;;;;;;23.53;52.58;100497.41;5056587;28;19939;-74
2023/07/15 11:38:32;;;;;;;;;;;;;;;23.54;52.46;100502.66;5051907;28;19948;-75
2023/07/15 11:41:00;;;;;;;;;;;;;;;23.55;52.44;100493.47;5051969;28;19913;-74
2023/07/15 11:43:27;;;;;;;;;;;;;;;23.56;52.36;100497.84;5051329;28;20362;-74
2023/07/15 11:45:59;;;;;;;;;;;;;;;23.57;52.55;100504.94;5051266;28;19975;-74
2023/07/15 11:48:25;;;;;;;;;;;;;;;23.58;52.41;100498.47;5049582;28;19916;-75
2023/07/15 11:50:51;;;;;;;;;;;;;;;23.60;52.31;100490.13;5049599;28;19913;-74
2023/07/15 11:53:26;;;;;;;;;;;;;;;23.61;52.52;100494.50;5070447;28;20055;-74
2023/07/15 11:55:52;;;;;;;;;;;;;;;23.62;52.21;100494.31;5052498;28;19917;-75
2023/07/15 11:58:36;;;;;;;;;;;;;;;23.63;52.42;100484.28;5086117;28;19924;-75
2023/07/15 12:01:01;;;;;;;;;;;;;;;23.64;52.37;100485.94;5050300;28;19917;-75
2023/07/15 12:03:26;;;;;;;;;;;;;;;23.64;52.26;100483.22;5057189;28;19913;-74
2023/07/15 12:05:52;;;;;;;;;;;;;;;23.63;52.47;100471.53;5083124;28;19921;-74
2023/07/15 12:08:17;;;;;;;;;;;;;;;23.64;52.43;100472.38;5055194;28;19917;-74
2023/07/15 12:10:50;;;;;;;;;;;;;;;23.65;52.31;100477.59;5049816;28;19984;-74
2023/07/15 12:13:15;;;;;;;;;;;;;;;23.65;52.12;100482.22;5047018;28;20025;-75
2023/07/15 12:15:40;;;;;;;;;;;;;;;23.66;52.24;100481.16;5052386;28;20355;-75
2023/07/15 12:18:05;;;;;;;;;;;;;;;23.66;52.15;100473.00;5081411;28;19921;-74
2023/07/15 12:20:31;;;;;;;;;;;;;;;23.66;52.18;100456.72;5052677;28;19920;-74
2023/07/15 12:22:56;;;;;;;;;;;;;;;23.67;52.38;100458.41;5051700;28;19996;-75
2023/07/15 12:25:23;;;;;;;;;;;;;;;23.70;52.02;100466.13;5052512;28;19924;-75
2023/07/15 12:27:48;;;;;;;;;;;;;;;23.71;52.33;100459.66;5053181;28;19927;-74
2023/07/15 12:30:13;;;;;;;;;;;;;;;23.72;52.06;100447.75;5052764;28;19980;-75